createdAt,value
2023-05-09T00:00:31.042Z,101327.59
2023-05-09T00:03:33.932Z,101324.41
2023-05-09T00:06:37.579Z,101334.72
2023-05-09T00:09:40.529Z,101333.19
2023-05-09T00:12:43.793Z,101323.06
2023-05-09T00:15:46.840Z,101328.09
2023-05-09T00:18:49.734Z,101326.78
2023-05-09T00:21:52.456Z,101324.94
2023-05-09T00:24:55.650Z,101313.81
2023-05-09T00:27:58.340Z,101319.38
2023-05-09T00:31:00.954Z,101325.75
2023-05-09T00:34:04.102Z,101321.22
2023-05-09T00:37:07.133Z,101327.59
2023-05-09T00:40:10.428Z,101314.84
2023-05-09T00:43:13.048Z,101322.81
2023-05-09T00:46:15.850Z,101328.91
2023-05-09T00:49:18.632Z,101331.03
2023-05-09T00:52:23.721Z,101322.78
2023-05-09T00:55:27.321Z,101324.63
2023-05-09T00:58:30.414Z,101323.56
2023-05-09T01:01:33.182Z,101324.06
2023-05-09T01:04:36.381Z,101319.28
2023-05-09T01:07:50.095Z,101315.84
2023-05-09T01:11:21.658Z,101319.81
2023-05-09T01:14:55.315Z,101324.56
2023-05-09T01:18:06.863Z,101314.72
2023-05-09T01:21:16.108Z,101319.22
2023-05-09T01:24:40.647Z,101316.03
2023-05-09T01:27:55.217Z,101318.41
2023-05-09T01:30:58.124Z,101309.91
2023-05-09T01:34:02.991Z,101311.22
2023-05-09T01:37:07.389Z,101311.78
2023-05-09T01:40:20.167Z,101292.72
2023-05-09T01:43:26.073Z,101303.34
2023-05-09T01:46:29.312Z,101304.94
2023-05-09T01:49:35.226Z,101303.09
2023-05-09T01:52:41.192Z,101307.38
2023-05-09T01:55:44.621Z,101303.41
2023-05-09T01:58:51.061Z,101301.56
2023-05-09T02:01:55.545Z,101305.03
2023-05-09T02:04:58.788Z,101317.72
2023-05-09T02:08:01.638Z,101309.25
2023-05-09T02:11:04.184Z,101301.81
2023-05-09T02:14:10.261Z,101305.53
2023-05-09T02:17:17.018Z,101299.22
2023-05-09T02:20:20.165Z,101301.31
2023-05-09T02:23:23.023Z,101293.38
2023-05-09T02:26:26.601Z,101299.47
2023-05-09T02:29:40.111Z,101292.59
2023-05-09T02:32:44.697Z,101289.44
2023-05-09T02:35:48.862Z,101293.94
2023-05-09T02:38:52.494Z,101299.25
2023-05-09T02:41:54.946Z,101293.94
2023-05-09T02:44:58.155Z,101304.03
2023-05-09T02:48:00.610Z,101297.38
2023-05-09T02:51:03.688Z,101302.16
2023-05-09T02:54:06.408Z,101297.91
2023-05-09T02:57:09.177Z,101300.81
2023-05-09T03:00:12.251Z,101293.69
2023-05-09T03:03:15.535Z,101299.50
2023-05-09T03:06:18.770Z,101296.88
2023-05-09T03:09:21.570Z,101298.44
2023-05-09T03:12:24.073Z,101300.84
2023-05-09T03:15:29.591Z,101300.28
2023-05-09T03:18:34.506Z,101311.69
2023-05-09T03:21:37.563Z,101297.13
2023-05-09T03:24:40.497Z,101311.19
2023-05-09T03:27:43.201Z,101306.94
2023-05-09T03:30:50.580Z,101306.41
2023-05-09T03:33:56.108Z,101298.72
2023-05-09T03:37:00.848Z,101307.72
2023-05-09T03:40:07.018Z,101309.31
2023-05-09T03:43:15.986Z,101301.91
2023-05-09T03:46:19.492Z,101313.28
2023-05-09T03:49:23.922Z,101310.38
2023-05-09T03:52:29.856Z,101320.44
2023-05-09T03:55:33.314Z,101317.81
2023-05-09T03:58:36.043Z,101316.72
2023-05-09T04:01:40.264Z,101318.84
2023-05-09T04:04:45.077Z,101317.78
2023-05-09T04:07:47.953Z,101322.81
2023-05-09T04:10:53.352Z,101328.13
2023-05-09T04:13:56.154Z,101328.09
2023-05-09T04:17:04.134Z,101320.59
2023-05-09T04:20:08.353Z,101332.28
2023-05-09T04:23:11.704Z,101317.94
2023-05-09T04:26:15.646Z,101329.56
2023-05-09T04:29:21.162Z,101329.56
2023-05-09T04:32:28.605Z,101321.63
2023-05-09T04:35:32.167Z,101326.09
2023-05-09T04:38:34.758Z,101329.94
2023-05-09T04:41:38.552Z,101330.16
2023-05-09T04:44:41.040Z,101339.66
2023-05-09T04:47:44.324Z,101329.69
2023-05-09T04:50:48.592Z,101337.56
2023-05-09T04:53:51.842Z,101324.38
2023-05-09T04:57:06.401Z,101326.28
2023-05-09T05:00:13.743Z,101330.97
2023-05-09T05:03:18.009Z,101329.97
2023-05-09T05:06:21.354Z,101336.22
2023-05-09T05:09:24.321Z,101334.13
2023-05-09T05:12:27.988Z,101338.94
2023-05-09T05:15:30.725Z,101339.16
2023-05-09T05:18:34.611Z,101339.97
2023-05-09T05:21:37.299Z,101341.03
2023-05-09T05:24:40.636Z,101348.59
2023-05-09T05:27:43.316Z,101347.81
2023-05-09T05:30:47.914Z,101350.81
2023-05-09T05:33:50.470Z,101339.06
2023-05-09T05:36:53.150Z,101346.03
2023-05-09T05:39:56.108Z,101342.63
2023-05-09T05:43:00.643Z,101341.31
2023-05-09T05:46:04.964Z,101342.28
2023-05-09T05:49:09.497Z,101338.53
2023-05-09T05:52:12.190Z,101336.25
2023-05-09T05:55:15.207Z,101329.66
2023-05-09T05:58:18.097Z,101332.25
2023-05-09T06:01:21.227Z,101328.81
2023-05-09T06:04:23.822Z,101328.22
2023-05-09T06:07:26.840Z,101332.03
2023-05-09T06:10:29.474Z,101326.53
2023-05-09T06:13:32.252Z,101337.41
2023-05-09T06:16:39.522Z,101335.13
2023-05-09T06:19:42.190Z,101333.72
2023-05-09T06:22:44.690Z,101326.78
2023-05-09T06:25:47.305Z,101325.84
2023-05-09T06:28:49.749Z,101330.03
2023-05-09T06:31:52.732Z,101331.84
2023-05-09T06:34:55.309Z,101319.56
2023-05-09T06:37:58.170Z,101322.16
2023-05-09T06:41:00.611Z,101320.53
2023-05-09T06:44:03.588Z,101315.53
2023-05-09T06:47:06.212Z,101321.84
2023-05-09T06:50:09.359Z,101309.31
2023-05-09T06:53:11.965Z,101315.78
2023-05-09T06:56:14.694Z,101320.09
2023-05-09T06:59:17.278Z,101321.81
2023-05-09T07:02:20.025Z,101305.19
2023-05-09T07:05:22.480Z,101311.81
2023-05-09T07:08:26.410Z,101320.31
2023-05-09T07:11:28.945Z,101315.13
2023-05-09T07:14:31.756Z,101313.13
2023-05-09T07:17:34.367Z,101306.50
2023-05-09T07:20:37.178Z,101306.22
2023-05-09T07:23:39.586Z,101303.34
2023-05-09T07:26:42.282Z,101308.16
2023-05-09T07:29:44.692Z,101298.53
2023-05-09T07:32:47.429Z,101297.09
2023-05-09T07:35:49.977Z,101299.22
2023-05-09T07:38:53.559Z,101299.38
2023-05-09T07:41:56.009Z,101294.25
2023-05-09T07:44:59.211Z,101287.88
2023-05-09T07:48:01.738Z,101282.81
2023-05-09T07:51:04.331Z,101285.84
2023-05-09T07:54:06.998Z,101274.63
2023-05-09T07:57:09.398Z,101268.38
2023-05-09T08:00:12.475Z,101269.50
2023-05-09T08:03:17.818Z,101265.81
2023-05-09T08:06:20.536Z,101260.47
2023-05-09T08:12:25.736Z,101261.41
2023-05-09T08:15:28.478Z,101255.78
2023-05-09T08:18:31.181Z,101251.28
2023-05-09T08:21:33.964Z,101257.16
2023-05-09T08:24:36.490Z,101250.78
2023-05-09T08:27:39.144Z,101263.31
2023-05-09T08:30:41.661Z,101247.53
2023-05-09T08:33:44.259Z,101248.06
2023-05-09T08:36:47.144Z,101250.97
2023-05-09T08:39:49.815Z,101249.09
2023-05-09T08:42:52.669Z,101252.56
2023-05-09T08:46:01.624Z,101262.81
2023-05-09T08:49:07.372Z,101258.72
2023-05-09T08:52:11.567Z,101256.63
2023-05-09T08:55:14.721Z,101246.56
2023-05-09T08:58:19.831Z,101248.84
2023-05-09T09:01:23.715Z,101248.78
2023-05-09T09:04:26.518Z,101243.78
2023-05-09T09:07:31.343Z,101237.81
2023-05-09T09:10:34.499Z,101230.09
2023-05-09T09:13:40.983Z,101221.69
2023-05-09T09:16:47.410Z,101229.03
2023-05-09T09:19:54.809Z,101224.72
2023-05-09T09:23:03.263Z,101226.09
2023-05-09T09:26:05.916Z,101231.69
2023-05-09T09:29:08.530Z,101228.72
2023-05-09T09:32:11.334Z,101223.50
2023-05-09T09:35:13.989Z,101236.13
2023-05-09T09:38:18.677Z,101224.63
2023-05-09T09:41:21.666Z,101218.75
2023-05-09T09:44:24.188Z,101220.59
2023-05-09T09:47:33.133Z,101225.41
2023-05-09T09:50:35.763Z,101207.50
2023-05-09T09:53:42.728Z,101211.84
2023-05-09T09:56:55.118Z,101212.53
2023-05-09T10:00:01.211Z,101212.00
2023-05-09T10:03:03.743Z,101204.91
2023-05-09T10:06:14.078Z,101205.13
2023-05-09T10:09:17.156Z,101201.34
2023-05-09T10:12:20.975Z,101196.28
2023-05-09T10:15:24.628Z,101183.03
2023-05-09T10:18:29.114Z,101194.34
2023-05-09T10:21:33.140Z,101191.22
2023-05-09T10:24:57.696Z,101190.81
2023-05-09T10:28:02.053Z,101186.44
2023-05-09T10:31:08.928Z,101183.69
2023-05-09T10:34:13.244Z,101179.91
2023-05-09T10:37:16.258Z,101175.88
2023-05-09T10:40:20.067Z,101172.50
2023-05-09T10:43:25.242Z,101175.41
2023-05-09T10:46:28.351Z,101169.06
2023-05-09T10:49:31.988Z,101164.88
2023-05-09T10:52:34.845Z,101159.25
2023-05-09T10:55:53.145Z,101168.16
2023-05-09T10:58:56.525Z,101160.34
2023-05-09T11:02:03.527Z,101159.91
2023-05-09T11:05:17.388Z,101146.94
2023-05-09T11:08:26.999Z,101137.78
2023-05-09T11:11:29.565Z,101140.94
2023-05-09T11:14:44.726Z,101133.06
2023-05-09T11:17:52.605Z,101131.88
2023-05-09T11:20:56.416Z,101124.56
2023-05-09T11:23:58.935Z,101119.44
2023-05-09T11:27:01.614Z,101126.47
2023-05-09T11:30:06.518Z,101124.53
2023-05-09T11:33:28.746Z,101115.00
2023-05-09T11:36:34.934Z,101114.72
2023-05-09T11:40:05.046Z,101104.28
2023-05-09T11:43:07.941Z,101112.97
2023-05-09T11:46:10.750Z,101095.59
2023-05-09T11:49:13.563Z,101101.16
2023-05-09T11:52:17.047Z,101093.28
2023-05-09T11:55:25.754Z,101091.34
2023-05-09T11:58:28.790Z,101099.53
2023-05-09T12:01:33.833Z,101092.13
2023-05-09T12:04:37.019Z,101091.72
2023-05-09T12:07:39.901Z,101085.97
2023-05-09T12:10:42.692Z,101087.03
2023-05-09T12:13:49.816Z,101089.19
2023-05-09T12:16:52.527Z,101082.56
2023-05-09T12:19:55.447Z,101082.06
2023-05-09T12:22:58.174Z,101082.75
2023-05-09T12:26:00.881Z,101088.31
2023-05-09T12:29:03.829Z,101073.13
2023-05-09T12:32:06.453Z,101075.78
2023-05-09T12:35:10.964Z,101064.31
2023-05-09T12:38:23.439Z,101067.34
2023-05-09T12:44:31.909Z,101068.81
2023-05-09T12:47:34.701Z,101053.63
2023-05-09T12:50:37.289Z,101058.03
2023-05-09T12:53:41.472Z,101041.41
2023-05-09T12:56:45.373Z,101045.88
2023-05-09T12:59:48.158Z,101049.16
2023-05-09T13:02:52.798Z,101036.97
2023-05-09T13:06:00.414Z,101041.94
2023-05-09T13:09:06.411Z,101030.81
2023-05-09T13:12:10.078Z,101030.06
2023-05-09T13:15:13.494Z,101022.69
2023-05-09T13:18:16.190Z,101021.22
2023-05-09T13:21:19.557Z,101016.63
2023-05-09T13:24:22.039Z,101015.16
2023-05-09T13:27:24.572Z,101010.03
2023-05-09T13:30:27.425Z,101007.84
2023-05-09T13:33:30.089Z,101010.94
2023-05-09T13:36:32.961Z,100999.72
2023-05-09T13:39:35.490Z,101004.75
2023-05-09T13:42:38.986Z,100995.19
2023-05-09T13:45:41.501Z,101000.34
2023-05-09T13:48:44.460Z,100988.56
2023-05-09T13:51:47.035Z,100994.50
2023-05-09T13:54:49.626Z,100999.41
2023-05-09T13:57:52.324Z,100997.56
2023-05-09T14:00:54.849Z,100991.25
2023-05-09T14:03:57.364Z,100990.41
2023-05-09T14:07:00.765Z,100991.69
2023-05-09T14:13:10.906Z,100977.56
2023-05-09T14:16:13.867Z,100977.13
2023-05-09T14:19:16.955Z,100981.06
2023-05-09T14:22:19.957Z,100987.31
2023-05-09T14:25:22.687Z,100977.47
2023-05-09T14:28:25.187Z,100983.66
2023-05-09T14:31:29.059Z,100976.50
2023-05-09T14:34:31.762Z,100987.03
2023-05-09T14:37:34.328Z,100973.78
2023-05-09T14:40:37.281Z,100977.13
2023-05-09T14:43:39.771Z,100968.09
2023-05-09T14:46:42.443Z,100973.59
2023-05-09T14:49:45.159Z,100967.84
2023-05-09T14:52:48.722Z,100954.09
2023-05-09T14:55:54.251Z,100962.41
2023-05-09T14:58:56.694Z,100963.66
2023-05-09T15:01:59.483Z,100950.75
2023-05-09T15:05:02.868Z,100955.28
2023-05-09T15:08:05.597Z,100954.44
2023-05-09T15:11:08.260Z,100946.44
2023-05-09T15:14:10.871Z,100954.41
2023-05-09T15:17:13.783Z,100945.06
2023-05-09T15:20:20.380Z,100939.06
2023-05-09T15:23:23.613Z,100930.34
2023-05-09T15:26:26.202Z,100925.56
2023-05-09T15:29:28.935Z,100920.44
2023-05-09T15:32:31.598Z,100923.09
2023-05-09T15:35:34.362Z,100921.81
2023-05-09T15:38:37.247Z,100915.19
2023-05-09T15:41:39.910Z,100915.69
2023-05-09T15:44:43.027Z,100917.03
2023-05-09T15:47:45.822Z,100912.72
2023-05-09T15:50:49.587Z,100911.03
2023-05-09T15:53:52.275Z,100903.50
2023-05-09T15:56:55.085Z,100897.38
2023-05-09T15:59:57.854Z,100894.22
2023-05-09T16:03:00.468Z,100896.13
2023-05-09T16:06:03.649Z,100894.50
2023-05-09T16:09:06.900Z,100897.53
2023-05-09T16:12:09.531Z,100890.50
2023-05-09T16:15:12.450Z,100895.16
2023-05-09T16:18:15.291Z,100892.56
2023-05-09T16:21:21.654Z,100893.72
2023-05-09T16:24:24.984Z,100892.88
2023-05-09T16:27:27.437Z,100889.41
2023-05-09T16:30:30.214Z,100886.53
2023-05-09T16:33:32.745Z,100879.50
2023-05-09T16:36:37.786Z,100885.50
2023-05-09T16:39:40.461Z,100888.63
2023-05-09T16:42:43.140Z,100886.50
2023-05-09T16:45:49.192Z,100879.56
2023-05-09T16:48:52.936Z,100881.72
2023-05-09T16:51:55.573Z,100882.13
2023-05-09T16:54:59.547Z,100890.47
2023-05-09T16:58:02.301Z,100887.31
2023-05-09T17:01:05.083Z,100881.41
2023-05-09T17:04:08.471Z,100877.94
2023-05-09T17:07:12.885Z,100881.97
2023-05-09T17:10:15.777Z,100875.47
2023-05-09T17:13:19.425Z,100873.00
2023-05-09T17:16:22.130Z,100874.00
2023-05-09T17:19:24.755Z,100864.38
2023-05-09T17:22:27.851Z,100868.50
2023-05-09T17:25:31.192Z,100873.41
2023-05-09T17:28:34.028Z,100876.56
2023-05-09T17:31:36.682Z,100879.09
2023-05-09T17:34:39.383Z,100871.19
2023-05-09T17:37:42.357Z,100876.59
2023-05-09T17:40:45.092Z,100876.03
2023-05-09T17:43:47.652Z,100873.91
2023-05-09T17:46:50.508Z,100879.59
2023-05-09T17:49:53.043Z,100886.56
2023-05-09T17:52:56.983Z,100880.34
2023-05-09T17:55:59.824Z,100870.16
2023-05-09T17:59:02.783Z,100877.88
2023-05-09T18:02:05.882Z,100879.97
2023-05-09T18:05:10.078Z,100872.75
2023-05-09T18:08:13.004Z,100875.16
2023-05-09T18:11:15.580Z,100873.44
2023-05-09T18:14:18.428Z,100881.00
2023-05-09T18:17:21.916Z,100880.22
2023-05-09T18:20:24.499Z,100882.22
2023-05-09T18:23:27.335Z,100890.09
2023-05-09T18:26:30.723Z,100894.78
2023-05-09T18:29:33.169Z,100893.19
2023-05-09T18:32:35.933Z,100894.72
2023-05-09T18:35:38.385Z,100896.31
2023-05-09T18:38:41.812Z,100896.94
2023-05-09T18:41:44.468Z,100901.97
2023-05-09T18:44:47.222Z,100902.16
2023-05-09T18:47:49.877Z,100908.28
2023-05-09T18:50:52.902Z,100908.09
2023-05-09T18:53:55.574Z,100908.88
2023-05-09T18:56:58.708Z,100909.50
2023-05-09T19:00:01.550Z,100903.72
2023-05-09T19:03:04.616Z,100902.09
2023-05-09T19:06:07.800Z,100910.38
2023-05-09T19:09:11.727Z,100906.38
2023-05-09T19:12:16.393Z,100908.19
2023-05-09T19:15:19.938Z,100903.06
2023-05-09T19:18:23.093Z,100902.44
2023-05-09T19:21:26.185Z,100905.03
2023-05-09T19:24:31.525Z,100902.00
2023-05-09T19:27:34.972Z,100906.38
2023-05-09T19:30:37.452Z,100911.69
2023-05-09T19:33:40.086Z,100902.22
2023-05-09T19:36:42.934Z,100908.16
2023-05-09T19:39:45.986Z,100908.50
2023-05-09T19:42:48.560Z,100907.22
2023-05-09T19:45:51.824Z,100915.44
2023-05-09T19:48:54.572Z,100908.81
2023-05-09T19:51:57.767Z,100906.66
2023-05-09T19:55:01.473Z,100909.66
2023-05-09T19:58:04.782Z,100905.22
2023-05-09T20:01:07.586Z,100900.47
2023-05-09T20:04:10.890Z,100905.25
2023-05-09T20:07:13.425Z,100901.88
2023-05-09T20:10:16.315Z,100905.66
2023-05-09T20:13:19.145Z,100903.19
2023-05-09T20:16:22.569Z,100897.88
2023-05-09T20:19:25.164Z,100899.03
2023-05-09T20:22:27.931Z,100901.22
2023-05-09T20:25:30.923Z,100898.44
2023-05-09T20:28:34.672Z,100900.31
2023-05-09T20:31:37.429Z,100896.53
2023-05-09T20:34:39.989Z,100895.88
2023-05-09T20:37:43.007Z,100891.63
2023-05-09T20:40:46.057Z,100895.88
2023-05-09T20:43:48.842Z,100896.88
2023-05-09T20:46:53.028Z,100900.72
2023-05-09T20:49:58.225Z,100899.91
2023-05-09T20:53:01.311Z,100895.16
2023-05-09T20:56:04.198Z,100899.75
2023-05-09T20:59:06.906Z,100903.19
2023-05-09T21:02:11.364Z,100904.28
2023-05-09T21:05:14.060Z,100903.38
2023-05-09T21:08:16.935Z,100900.09
2023-05-09T21:11:19.550Z,100897.84
2023-05-09T21:14:22.218Z,100890.53
2023-05-09T21:17:25.062Z,100881.94
2023-05-09T21:20:27.650Z,100887.84
2023-05-09T21:23:30.519Z,100884.97
2023-05-09T21:26:33.385Z,100874.50
2023-05-09T21:29:37.454Z,100874.28
2023-05-09T21:32:39.919Z,100880.28
2023-05-09T21:35:42.822Z,100879.50
2023-05-09T21:38:45.292Z,100875.56
2023-05-09T21:41:48.131Z,100875.69
2023-05-09T21:44:50.619Z,100880.94
2023-05-09T21:47:53.379Z,100876.63
2023-05-09T21:50:56.224Z,100874.00
2023-05-09T21:53:58.826Z,100869.78
2023-05-09T21:57:01.498Z,100873.72
2023-05-09T22:00:06.792Z,100877.47
2023-05-09T22:03:15.572Z,100865.13
2023-05-09T22:06:18.706Z,100863.88
2023-05-09T22:09:21.428Z,100870.38
2023-05-09T22:12:24.357Z,100865.63
2023-05-09T22:15:27.860Z,100863.09
2023-05-09T22:18:31.805Z,100864.38
2023-05-09T22:21:34.499Z,100863.50
2023-05-09T22:24:37.686Z,100863.00
2023-05-09T22:27:40.312Z,100869.06
2023-05-09T22:30:43.941Z,100855.84
2023-05-09T22:33:46.526Z,100852.28
2023-05-09T22:36:49.328Z,100854.84
2023-05-09T22:39:51.703Z,100856.34
2023-05-09T22:42:54.929Z,100852.13
2023-05-09T22:45:57.609Z,100848.47
2023-05-09T22:49:00.239Z,100846.78
2023-05-09T22:52:03.240Z,100846.34
2023-05-09T22:55:06.479Z,100841.38
2023-05-09T22:58:10.137Z,100837.53
2023-05-09T23:01:13.148Z,100845.75
2023-05-09T23:04:15.580Z,100835.19
2023-05-09T23:07:18.451Z,100846.81
2023-05-09T23:10:21.136Z,100836.34
2023-05-09T23:13:23.816Z,100839.41
2023-05-09T23:16:26.550Z,100838.63
2023-05-09T23:19:29.293Z,100832.78
2023-05-09T23:22:32.121Z,100834.44
2023-05-09T23:25:34.814Z,100834.94
2023-05-09T23:28:37.505Z,100835.69
2023-05-09T23:31:41.153Z,100828.41
2023-05-09T23:34:43.666Z,100833.25
2023-05-09T23:37:46.698Z,100828.69
2023-05-09T23:40:49.164Z,100828.97
2023-05-09T23:43:52.162Z,100831.00
2023-05-09T23:46:54.921Z,100830.22
2023-05-09T23:49:57.653Z,100831.50
2023-05-09T23:53:00.304Z,100829.81
2023-05-09T23:56:03.241Z,100822.69
2023-05-09T23:59:05.808Z,100824.84
